This is the latest recevied weather packets stored in our database for station/object HP1COO-13. If no packets are shown the sender has not sent any weather packets the latest 10 day(s).
| Time | Temp. | Humidity | Pressure | Rain* | Wind** | Luminosity | Snow |
|---|---|---|---|---|---|---|---|
| 1787601882 | 29.44° C | 86% | 1005.9 hPa | 0 mm | - | - | - |
| 1787601249 | 28.89° C | 88% | 1005.8 hPa | 0 mm | - | - | - |
| 1787599983 | 28.89° C | 87% | 1006.3 hPa | 0 mm | - | - | - |
| 1787599350 | 29.44° C | 86% | 1006.1 hPa | 0 mm | - | - | - |
| 1787598717 | 30° C | 83% | 1006 hPa | 0 mm | - | - | - |
| 1787598084 | 30° C | 81% | 1006.3 hPa | 0 mm | - | - | - |
| 1787597451 | 31.11° C | 77% | 1006.2 hPa | 0 mm | - | - | - |
| 1787596818 | 31.11° C | 77% | 1006.3 hPa | 0 mm | - | - | - |
| 1787596185 | 31.67° C | 76% | 1006.3 hPa | 0 mm | - | - | - |
| 1787595551 | 32.22° C | 74% | 1006.5 hPa | 0 mm | - | - | - |
| 1787594286 | 33.89° C | 68% | 1006.7 hPa | 0 mm | - | - | - |
| 1787593653 | 33.33° C | 70% | 1006.9 hPa | 0 mm | - | - | - |
| 1787593020 | 32.78° C | 70% | 1007 hPa | 0 mm | - | - | - |
| 1787592387 | 32.78° C | 71% | 1007 hPa | 0 mm | - | - | - |
| 1787591754 | 32.78° C | 69% | 1007.1 hPa | 0 mm | - | - | - |
| 1787590488 | 33.89° C | 65% | 1007.4 hPa | 0 mm | - | - | - |
| 1787589855 | 32.78° C | 68% | 1007.7 hPa | 0 mm | - | - | - |
| 1787589222 | 32.78° C | 69% | 1007.8 hPa | 0 mm | - | - | - |
| 1787588589 | 33.33° C | 66% | 1008 hPa | 0 mm | - | - | - |
| 1787587956 | 33.33° C | 66% | 1007.8 hPa | 0 mm | - | - | - |
| 1787587323 | 33.89° C | 64% | 1008 hPa | 0 mm | - | - | - |
| 1787586690 | 33.33° C | 65% | 1007.9 hPa | 0 mm | - | - | - |
| 1787585424 | 33.33° C | 66% | 1008.1 hPa | 0 mm | - | - | - |
| 1787584791 | 33.33° C | 67% | 1008.2 hPa | 0 mm | - | - | - |
| 1787584158 | 32.78° C | 69% | 1008.5 hPa | 0 mm | - | - | - |
* Rain latest hour (hover to see other rain measurements)
** Current wind speed in m/s (hover to see current wind gust speed)